sensor_id;sensor_type;location;lat;lon;timestamp;pressure;altitude;pressure_sealevel;temperature;humidity
76331;BME280;65148;51.912;15.570;2023-07-13T00:00:49;101167.93;;;21.07;73.62
76331;BME280;65148;51.912;15.570;2023-07-13T00:15:50;101139.20;;;21.24;73.97
76331;BME280;65148;51.912;15.570;2023-07-13T00:31:10;101143.01;;;21.07;75.89
76331;BME280;65148;51.912;15.570;2023-07-13T00:46:16;101157.53;;;21.04;76.37
76331;BME280;65148;51.912;15.570;2023-07-13T01:01:18;101159.02;;;21.01;75.32
76331;BME280;65148;51.912;15.570;2023-07-13T01:16:49;101154.09;;;20.95;76.65
76331;BME280;65148;51.912;15.570;2023-07-13T01:31:50;101155.23;;;20.82;80.68
76331;BME280;65148;51.912;15.570;2023-07-13T01:46:51;101124.45;;;20.71;76.96
76331;BME280;65148;51.912;15.570;2023-07-13T02:01:52;101118.57;;;20.85;59.21
76331;BME280;65148;51.912;15.570;2023-07-13T02:17:10;101154.30;;;21.02;57.89
76331;BME280;65148;51.912;15.570;2023-07-13T02:32:11;101148.20;;;21.08;58.84
76331;BME280;65148;51.912;15.570;2023-07-13T02:47:12;101162.95;;;21.00;60.10
76331;BME280;65148;51.912;15.570;2023-07-13T03:02:14;101131.27;;;20.86;62.99
76331;BME280;65148;51.912;15.570;2023-07-13T03:17:31;101147.61;;;20.54;66.31
76331;BME280;65148;51.912;15.570;2023-07-13T03:32:32;101176.05;;;20.43;69.47
76331;BME280;65148;51.912;15.570;2023-07-13T03:47:33;101178.84;;;20.55;70.66
76331;BME280;65148;51.912;15.570;2023-07-13T04:02:34;101199.79;;;20.56;72.76
76331;BME280;65148;51.912;15.570;2023-07-13T04:17:53;101216.20;;;20.61;74.31
76331;BME280;65148;51.912;15.570;2023-07-13T04:32:54;101230.84;;;20.61;74.99
76331;BME280;65148;51.912;15.570;2023-07-13T04:47:54;101258.50;;;20.61;73.69
76331;BME280;65148;51.912;15.570;2023-07-13T05:02:57;101285.44;;;20.52;74.21
76331;BME280;65148;51.912;15.570;2023-07-13T05:18:15;101293.02;;;20.43;73.96
76331;BME280;65148;51.912;15.570;2023-07-13T05:33:16;101301.52;;;20.71;74.39
76331;BME280;65148;51.912;15.570;2023-07-13T05:48:17;101315.88;;;20.85;73.45
76331;BME280;65148;51.912;15.570;2023-07-13T06:03:19;101313.09;;;21.18;71.45
76331;BME280;65148;51.912;15.570;2023-07-13T06:18:37;101326.04;;;21.38;72.16
76331;BME280;65148;51.912;15.570;2023-07-13T06:33:39;101320.59;;;21.54;72.09
76331;BME280;65148;51.912;15.570;2023-07-13T06:48:40;101329.03;;;21.82;70.44
76331;BME280;65148;51.912;15.570;2023-07-13T07:03:41;101340.85;;;22.31;70.88
76331;BME280;65148;51.912;15.570;2023-07-13T07:19:00;101330.84;;;22.54;66.54
76331;BME280;65148;51.912;15.570;2023-07-13T07:34:00;101342.81;;;22.71;63.72
76331;BME280;65148;51.912;15.570;2023-07-13T07:49:02;101329.38;;;23.16;63.05
76331;BME280;65148;51.912;15.570;2023-07-13T08:04:06;101320.61;;;23.30;54.77
76331;BME280;65148;51.912;15.570;2023-07-13T08:19:21;101335.11;;;23.86;53.06
76331;BME280;65148;51.912;15.570;2023-07-13T08:34:22;101340.63;;;24.37;49.35
76331;BME280;65148;51.912;15.570;2023-07-13T08:49:23;101333.21;;;25.02;46.24
76331;BME280;65148;51.912;15.570;2023-07-13T09:04:30;101354.71;;;24.63;47.33
76331;BME280;65148;51.912;15.570;2023-07-13T09:19:49;101362.60;;;24.81;48.82
76331;BME280;65148;51.912;15.570;2023-07-13T09:34:55;101356.05;;;25.57;48.39
76331;BME280;65148;51.912;15.570;2023-07-13T09:50:01;101369.30;;;25.87;47.79
76331;BME280;65148;51.912;15.570;2023-07-13T10:05:23;101364.90;;;26.12;43.86
76331;BME280;65148;51.912;15.570;2023-07-13T10:20:27;101370.38;;;25.78;44.09
76331;BME280;65148;51.912;15.570;2023-07-13T10:35:29;101361.34;;;25.39;40.68
76331;BME280;65148;51.912;15.570;2023-07-13T10:50:31;101371.69;;;25.39;40.16
76331;BME280;65148;51.912;15.570;2023-07-13T11:05:51;101379.31;;;25.65;40.23
76331;BME280;65148;51.912;15.570;2023-07-13T11:36:15;101366.73;;;26.57;38.31
76331;BME280;65148;51.912;15.570;2023-07-13T11:51:30;101366.11;;;26.41;40.66
76331;BME280;65148;51.912;15.570;2023-07-13T12:06:35;101357.33;;;27.06;39.87
76331;BME280;65148;51.912;15.570;2023-07-13T12:21:42;101350.27;;;26.82;36.86
76331;BME280;65148;51.912;15.570;2023-07-13T12:37:12;101354.11;;;27.44;35.50
76331;BME280;65148;51.912;15.570;2023-07-13T12:52:23;101361.15;;;26.90;38.65
76331;BME280;65148;51.912;15.570;2023-07-13T13:07:25;101350.30;;;26.85;40.50
76331;BME280;65148;51.912;15.570;2023-07-13T13:22:52;101346.82;;;26.02;40.80
76331;BME280;65148;51.912;15.570;2023-07-13T13:37:54;101354.20;;;26.77;40.81
76331;BME280;65148;51.912;15.570;2023-07-13T13:52:55;101362.17;;;26.15;41.58
76331;BME280;65148;51.912;15.570;2023-07-13T14:07:56;101349.52;;;27.66;39.54
76331;BME280;65148;51.912;15.570;2023-07-13T14:23:18;101360.51;;;27.45;40.41
76331;BME280;65148;51.912;15.570;2023-07-13T14:38:20;101360.72;;;26.88;40.11
76331;BME280;65148;51.912;15.570;2023-07-13T14:53:22;101351.74;;;26.72;37.57
76331;BME280;65148;51.912;15.570;2023-07-13T15:12:14;101352.16;;;26.74;37.01
76331;BME280;65148;51.912;15.570;2023-07-13T15:27:15;101345.86;;;27.14;38.21
76331;BME280;65148;51.912;15.570;2023-07-13T15:42:18;101330.59;;;27.52;35.86
76331;BME280;65148;51.912;15.570;2023-07-13T15:57:44;101337.07;;;27.60;34.83
76331;BME280;65148;51.912;15.570;2023-07-13T16:12:47;101337.95;;;27.23;36.29
76331;BME280;65148;51.912;15.570;2023-07-13T16:27:49;101350.05;;;26.64;35.63
76331;BME280;65148;51.912;15.570;2023-07-13T16:42:52;101356.52;;;26.72;36.47
76331;BME280;65148;51.912;15.570;2023-07-13T16:58:09;101358.72;;;27.26;36.14
76331;BME280;65148;51.912;15.570;2023-07-13T17:13:14;101360.34;;;26.90;36.40
76331;BME280;65148;51.912;15.570;2023-07-13T17:28:17;101367.27;;;26.36;37.93
76331;BME280;65148;51.912;15.570;2023-07-13T17:43:46;101379.51;;;26.02;38.16
76331;BME280;65148;51.912;15.570;2023-07-13T17:58:48;101397.17;;;25.60;39.20
76331;BME280;65148;51.912;15.570;2023-07-13T18:13:50;101406.07;;;25.46;39.40
76331;BME280;65148;51.912;15.570;2023-07-13T18:28:51;101417.92;;;25.21;39.63
76331;BME280;65148;51.912;15.570;2023-07-13T18:44:06;101441.98;;;24.71;39.88
76331;BME280;65148;51.912;15.570;2023-07-13T18:59:07;101458.30;;;24.53;40.46
76331;BME280;65148;51.912;15.570;2023-07-13T19:14:15;101469.57;;;24.25;42.93
76331;BME280;65148;51.912;15.570;2023-07-13T19:29:45;101500.21;;;23.22;49.74
76331;BME280;65148;51.912;15.570;2023-07-13T19:44:46;101507.89;;;22.37;54.76
76331;BME280;65148;51.912;15.570;2023-07-13T19:59:47;101517.59;;;21.61;57.51
76331;BME280;65148;51.912;15.570;2023-07-13T20:15:25;101536.27;;;20.90;63.81
76331;BME280;65148;51.912;15.570;2023-07-13T20:30:29;101544.07;;;20.37;67.28
76331;BME280;65148;51.912;15.570;2023-07-13T20:45:33;101594.89;;;20.62;52.82
76331;BME280;65148;51.912;15.570;2023-07-13T21:01:02;101611.32;;;21.18;51.54
76331;BME280;65148;51.912;15.570;2023-07-13T21:16:14;101627.27;;;20.91;52.13
76331;BME280;65148;51.912;15.570;2023-07-13T21:31:25;101644.97;;;20.69;52.72
76331;BME280;65148;51.912;15.570;2023-07-13T21:46:41;101655.02;;;20.36;53.69
76331;BME280;65148;51.912;15.570;2023-07-13T22:01:41;101649.23;;;20.12;54.86
76331;BME280;65148;51.912;15.570;2023-07-13T22:16:44;101645.18;;;19.92;56.48
76331;BME280;65148;51.912;15.570;2023-07-13T22:31:45;101643.07;;;19.80;56.25
76331;BME280;65148;51.912;15.570;2023-07-13T22:47:03;101638.86;;;19.48;58.32
76331;BME280;65148;51.912;15.570;2023-07-13T23:02:04;101657.77;;;19.07;61.62
76331;BME280;65148;51.912;15.570;2023-07-13T23:17:10;101666.75;;;18.42;64.79
76331;BME280;65148;51.912;15.570;2023-07-13T23:32:12;101671.84;;;17.95;67.65
76331;BME280;65148;51.912;15.570;2023-07-13T23:47:25;101666.67;;;17.44;71.74
